sensor_id;sensor_type;location;lat;lon;timestamp;P1;durP1;ratioP1;P2;durP2;ratioP2
6926;SDS011;3503;50.07605000;8.86719200;2024-02-04T00:09:44;1.60;;;1.10;;
6926;SDS011;3503;50.07605000;8.86719200;2024-02-04T00:24:46;1.43;;;0.93;;
6926;SDS011;3503;50.07605000;8.86719200;2024-02-04T00:39:49;1.03;;;0.70;;
6926;SDS011;3503;50.07605000;8.86719200;2024-02-04T00:54:52;1.57;;;0.80;;
6926;SDS011;3503;50.07605000;8.86719200;2024-02-04T01:09:55;2.47;;;0.93;;
6926;SDS011;3503;50.07605000;8.86719200;2024-02-04T01:24:58;1.70;;;1.30;;
6926;SDS011;3503;50.07605000;8.86719200;2024-02-04T01:40:01;1.70;;;1.07;;
6926;SDS011;3503;50.07605000;8.86719200;2024-02-04T01:55:04;2.80;;;1.10;;
6926;SDS011;3503;50.07605000;8.86719200;2024-02-04T02:10:08;3.20;;;1.23;;
6926;SDS011;3503;50.07605000;8.86719200;2024-02-04T02:25:12;1.37;;;1.00;;
6926;SDS011;3503;50.07605000;8.86719200;2024-02-04T02:40:19;1.60;;;1.00;;
6926;SDS011;3503;50.07605000;8.86719200;2024-02-04T02:55:24;1.63;;;0.90;;
6926;SDS011;3503;50.07605000;8.86719200;2024-02-04T03:10:27;2.57;;;1.47;;
6926;SDS011;3503;50.07605000;8.86719200;2024-02-04T03:25:30;1.93;;;1.17;;
6926;SDS011;3503;50.07605000;8.86719200;2024-02-04T03:40:33;2.10;;;1.33;;
6926;SDS011;3503;50.07605000;8.86719200;2024-02-04T03:55:36;4.10;;;1.53;;
6926;SDS011;3503;50.07605000;8.86719200;2024-02-04T04:10:39;3.30;;;1.63;;
6926;SDS011;3503;50.07605000;8.86719200;2024-02-04T04:25:41;2.20;;;1.30;;
6926;SDS011;3503;50.07605000;8.86719200;2024-02-04T04:40:44;4.40;;;1.50;;
6926;SDS011;3503;50.07605000;8.86719200;2024-02-04T04:55:47;1.43;;;1.17;;
6926;SDS011;3503;50.07605000;8.86719200;2024-02-04T05:10:50;1.60;;;0.77;;
6926;SDS011;3503;50.07605000;8.86719200;2024-02-04T05:25:53;1.27;;;0.70;;
6926;SDS011;3503;50.07605000;8.86719200;2024-02-04T05:40:57;1.77;;;0.63;;
6926;SDS011;3503;50.07605000;8.86719200;2024-02-04T05:56:00;3.17;;;0.80;;
6926;SDS011;3503;50.07605000;8.86719200;2024-02-04T06:11:02;2.20;;;1.03;;
6926;SDS011;3503;50.07605000;8.86719200;2024-02-04T06:26:05;8.70;;;0.70;;
6926;SDS011;3503;50.07605000;8.86719200;2024-02-04T06:41:08;1.03;;;0.50;;
6926;SDS011;3503;50.07605000;8.86719200;2024-02-04T06:56:12;1.83;;;0.40;;
6926;SDS011;3503;50.07605000;8.86719200;2024-02-04T07:11:15;0.80;;;0.37;;
6926;SDS011;3503;50.07605000;8.86719200;2024-02-04T07:26:18;1.20;;;0.53;;
6926;SDS011;3503;50.07605000;8.86719200;2024-02-04T07:41:21;1.07;;;0.50;;
6926;SDS011;3503;50.07605000;8.86719200;2024-02-04T07:56:24;0.90;;;0.43;;
6926;SDS011;3503;50.07605000;8.86719200;2024-02-04T08:11:26;1.20;;;0.60;;
6926;SDS011;3503;50.07605000;8.86719200;2024-02-04T08:26:29;1.63;;;0.47;;
6926;SDS011;3503;50.07605000;8.86719200;2024-02-04T08:41:32;1.43;;;0.20;;
6926;SDS011;3503;50.07605000;8.86719200;2024-02-04T08:56:35;0.70;;;0.30;;
6926;SDS011;3503;50.07605000;8.86719200;2024-02-04T09:11:38;0.67;;;0.27;;
6926;SDS011;3503;50.07605000;8.86719200;2024-02-04T09:26:40;1.00;;;0.30;;
6926;SDS011;3503;50.07605000;8.86719200;2024-02-04T09:41:44;1.93;;;0.50;;
6926;SDS011;3503;50.07605000;8.86719200;2024-02-04T09:56:47;0.73;;;0.30;;
6926;SDS011;3503;50.07605000;8.86719200;2024-02-04T10:11:52;0.83;;;0.37;;
6926;SDS011;3503;50.07605000;8.86719200;2024-02-04T10:26:55;0.80;;;0.40;;
6926;SDS011;3503;50.07605000;8.86719200;2024-02-04T10:42:01;1.33;;;0.40;;
6926;SDS011;3503;50.07605000;8.86719200;2024-02-04T10:57:05;0.93;;;0.47;;
6926;SDS011;3503;50.07605000;8.86719200;2024-02-04T11:12:14;0.80;;;0.30;;
6926;SDS011;3503;50.07605000;8.86719200;2024-02-04T11:27:19;2.40;;;0.60;;
6926;SDS011;3503;50.07605000;8.86719200;2024-02-04T11:42:23;1.10;;;0.40;;
6926;SDS011;3503;50.07605000;8.86719200;2024-02-04T11:57:26;1.03;;;0.70;;
6926;SDS011;3503;50.07605000;8.86719200;2024-02-04T12:12:29;2.37;;;0.60;;
6926;SDS011;3503;50.07605000;8.86719200;2024-02-04T12:27:32;0.93;;;0.37;;
6926;SDS011;3503;50.07605000;8.86719200;2024-02-04T12:42:35;1.40;;;0.60;;
6926;SDS011;3503;50.07605000;8.86719200;2024-02-04T12:57:38;2.60;;;1.03;;
6926;SDS011;3503;50.07605000;8.86719200;2024-02-04T13:12:41;1.83;;;0.67;;
6926;SDS011;3503;50.07605000;8.86719200;2024-02-04T13:27:44;1.67;;;0.50;;
6926;SDS011;3503;50.07605000;8.86719200;2024-02-04T13:42:47;1.47;;;0.67;;
6926;SDS011;3503;50.07605000;8.86719200;2024-02-04T13:57:50;1.37;;;0.37;;
6926;SDS011;3503;50.07605000;8.86719200;2024-02-04T14:12:53;0.97;;;0.40;;
6926;SDS011;3503;50.07605000;8.86719200;2024-02-04T14:27:56;1.50;;;0.60;;
6926;SDS011;3503;50.07605000;8.86719200;2024-02-04T14:42:59;2.00;;;0.40;;
6926;SDS011;3503;50.07605000;8.86719200;2024-02-04T14:58:03;1.00;;;0.30;;
6926;SDS011;3503;50.07605000;8.86719200;2024-02-04T15:13:07;0.77;;;0.40;;
6926;SDS011;3503;50.07605000;8.86719200;2024-02-04T15:28:11;0.60;;;0.20;;
6926;SDS011;3503;50.07605000;8.86719200;2024-02-04T15:43:15;1.27;;;0.77;;
6926;SDS011;3503;50.07605000;8.86719200;2024-02-04T15:58:18;1.50;;;0.67;;
6926;SDS011;3503;50.07605000;8.86719200;2024-02-04T16:13:20;1.47;;;0.30;;
6926;SDS011;3503;50.07605000;8.86719200;2024-02-04T16:28:26;1.20;;;0.40;;
6926;SDS011;3503;50.07605000;8.86719200;2024-02-04T16:43:29;3.23;;;0.33;;
6926;SDS011;3503;50.07605000;8.86719200;2024-02-04T16:58:32;1.07;;;0.30;;
6926;SDS011;3503;50.07605000;8.86719200;2024-02-04T17:13:35;1.53;;;0.93;;
6926;SDS011;3503;50.07605000;8.86719200;2024-02-04T17:28:39;1.87;;;0.80;;
6926;SDS011;3503;50.07605000;8.86719200;2024-02-04T17:43:42;1.97;;;0.97;;
6926;SDS011;3503;50.07605000;8.86719200;2024-02-04T17:58:44;1.53;;;0.83;;
6926;SDS011;3503;50.07605000;8.86719200;2024-02-04T18:13:48;2.40;;;0.70;;
6926;SDS011;3503;50.07605000;8.86719200;2024-02-04T18:28:51;1.23;;;0.73;;
6926;SDS011;3503;50.07605000;8.86719200;2024-02-04T18:43:54;1.50;;;0.70;;
6926;SDS011;3503;50.07605000;8.86719200;2024-02-04T18:58:58;1.53;;;0.50;;
6926;SDS011;3503;50.07605000;8.86719200;2024-02-04T19:14:01;1.17;;;0.50;;
6926;SDS011;3503;50.07605000;8.86719200;2024-02-04T19:29:05;1.07;;;0.47;;
6926;SDS011;3503;50.07605000;8.86719200;2024-02-04T19:44:08;2.70;;;0.40;;
6926;SDS011;3503;50.07605000;8.86719200;2024-02-04T19:59:11;1.00;;;0.37;;
6926;SDS011;3503;50.07605000;8.86719200;2024-02-04T20:14:14;4.83;;;0.50;;
6926;SDS011;3503;50.07605000;8.86719200;2024-02-04T20:29:17;0.90;;;0.23;;
6926;SDS011;3503;50.07605000;8.86719200;2024-02-04T20:44:19;0.80;;;0.23;;
6926;SDS011;3503;50.07605000;8.86719200;2024-02-04T20:59:22;0.83;;;0.50;;
6926;SDS011;3503;50.07605000;8.86719200;2024-02-04T21:14:25;2.60;;;0.27;;
6926;SDS011;3503;50.07605000;8.86719200;2024-02-04T21:29:28;1.20;;;0.43;;
6926;SDS011;3503;50.07605000;8.86719200;2024-02-04T21:44:31;1.33;;;0.30;;
6926;SDS011;3503;50.07605000;8.86719200;2024-02-04T21:59:34;1.53;;;0.40;;
6926;SDS011;3503;50.07605000;8.86719200;2024-02-04T22:14:37;0.70;;;0.30;;
6926;SDS011;3503;50.07605000;8.86719200;2024-02-04T22:29:40;0.70;;;0.30;;
6926;SDS011;3503;50.07605000;8.86719200;2024-02-04T22:44:43;1.23;;;0.30;;
6926;SDS011;3503;50.07605000;8.86719200;2024-02-04T22:59:46;2.57;;;0.67;;
6926;SDS011;3503;50.07605000;8.86719200;2024-02-04T23:14:49;1.13;;;0.33;;
6926;SDS011;3503;50.07605000;8.86719200;2024-02-04T23:29:52;0.77;;;0.37;;
6926;SDS011;3503;50.07605000;8.86719200;2024-02-04T23:44:54;0.67;;;0.30;;
6926;SDS011;3503;50.07605000;8.86719200;2024-02-04T23:59:57;0.60;;;0.20;;
